createdAt,value
2019-04-06T00:01:48.729Z,9.90
2019-04-06T00:04:17.604Z,9.90
2019-04-06T00:06:46.411Z,9.80
2019-04-06T00:09:15.058Z,9.80
2019-04-06T00:11:45.351Z,9.60
2019-04-06T00:14:14.094Z,9.80
2019-04-06T00:16:42.768Z,9.80
2019-04-06T00:19:11.589Z,9.90
2019-04-06T00:21:40.197Z,10.00
2019-04-06T00:24:08.989Z,10.20
2019-04-06T00:26:37.384Z,10.20
2019-04-06T00:29:05.968Z,10.20
2019-04-06T00:31:57.373Z,10.20
2019-04-06T00:34:26.118Z,10.20
2019-04-06T00:36:54.780Z,10.10
2019-04-06T00:39:24.243Z,10.20
2019-04-06T00:41:54.712Z,10.10
2019-04-06T00:44:23.361Z,10.10
2019-04-06T00:46:51.888Z,10.00
2019-04-06T00:49:22.024Z,10.00
2019-04-06T00:51:50.692Z,9.90
2019-04-06T00:54:19.410Z,9.90
2019-04-06T00:56:48.410Z,9.70
2019-04-06T00:59:17.224Z,9.80
2019-04-06T01:01:45.962Z,9.80
2019-04-06T01:04:14.636Z,9.90
2019-04-06T01:06:43.285Z,9.90
2019-04-06T01:09:12.075Z,9.90
2019-04-06T01:11:40.940Z,10.00
2019-04-06T01:14:09.645Z,9.80
2019-04-06T01:16:38.359Z,9.70
2019-04-06T01:19:07.314Z,9.70
2019-04-06T01:21:36.129Z,9.70
2019-04-06T01:24:04.966Z,9.90
2019-04-06T01:26:33.619Z,9.80
2019-04-06T01:29:02.830Z,9.80
2019-04-06T01:31:32.932Z,9.90
2019-04-06T01:34:01.655Z,10.00
2019-04-06T01:36:30.398Z,10.00
2019-04-06T01:38:59.538Z,10.00
2019-04-06T01:41:28.281Z,10.00
2019-04-06T01:43:56.913Z,9.90
2019-04-06T01:46:27.339Z,10.00
2019-04-06T01:48:55.846Z,10.00
2019-04-06T01:51:24.654Z,9.90
2019-04-06T01:53:53.617Z,10.00
2019-04-06T01:56:23.392Z,10.00
2019-04-06T01:58:52.209Z,9.90
2019-04-06T02:01:27.451Z,10.00
2019-04-06T02:03:56.174Z,10.00
2019-04-06T02:06:25.703Z,10.10
2019-04-06T02:08:54.555Z,10.10
2019-04-06T02:11:24.783Z,10.20
2019-04-06T02:13:53.509Z,10.10
2019-04-06T02:16:22.321Z,10.10
2019-04-06T02:18:51.138Z,10.10
2019-04-06T02:21:19.878Z,10.10
2019-04-06T02:23:48.812Z,10.00
2019-04-06T02:26:29.167Z,10.00
2019-04-06T02:28:48.325Z,10.00
2019-04-06T02:31:36.651Z,10.00
2019-04-06T02:34:23.161Z,10.00
2019-04-06T02:37:10.021Z,10.00
2019-04-06T02:39:48.828Z,9.90
2019-04-06T02:42:20.982Z,9.90
2019-04-06T02:44:51.365Z,9.90
2019-04-06T02:47:19.815Z,9.80
2019-04-06T02:49:49.074Z,9.50
2019-04-06T02:52:17.786Z,9.50
2019-04-06T02:54:46.882Z,9.60
2019-04-06T02:57:15.637Z,9.70
2019-04-06T02:59:44.531Z,9.70
2019-04-06T03:02:14.235Z,9.70
2019-04-06T03:04:42.943Z,9.60
2019-04-06T03:07:13.483Z,9.60
2019-04-06T03:09:42.088Z,9.60
2019-04-06T03:12:11.238Z,9.50
2019-04-06T03:14:44.188Z,9.40
2019-04-06T03:17:11.764Z,9.50
2019-04-06T03:19:40.357Z,9.30
2019-04-06T03:22:09.132Z,9.40
2019-04-06T03:24:38.507Z,9.60
2019-04-06T03:27:07.091Z,9.60
2019-04-06T03:29:35.578Z,9.70
2019-04-06T03:32:04.478Z,9.70
2019-04-06T03:34:33.574Z,9.70
2019-04-06T03:37:02.352Z,9.70
2019-04-06T03:39:30.897Z,9.60
2019-04-06T03:41:59.485Z,9.60
2019-04-06T03:44:28.310Z,9.60
2019-04-06T03:46:57.121Z,9.60
2019-04-06T03:49:27.931Z,9.40
2019-04-06T03:51:57.365Z,9.20
2019-04-06T03:54:26.167Z,9.30
2019-04-06T03:56:54.817Z,9.30
2019-04-06T03:59:25.592Z,9.40
2019-04-06T04:01:54.156Z,9.50
2019-04-06T04:04:22.762Z,9.40
2019-04-06T04:06:51.193Z,9.40
2019-04-06T04:09:21.557Z,9.50
2019-04-06T04:11:50.067Z,9.40
2019-04-06T04:14:19.198Z,9.40
2019-04-06T04:16:47.933Z,9.50
2019-04-06T04:19:16.573Z,9.50
2019-04-06T04:21:45.653Z,9.50
2019-04-06T04:24:14.224Z,9.60
2019-04-06T04:26:42.846Z,9.60
2019-04-06T04:29:13.145Z,9.60
2019-04-06T04:31:42.078Z,9.50
2019-04-06T04:34:10.708Z,9.40
2019-04-06T04:36:39.648Z,9.00
2019-04-06T04:39:08.543Z,9.10
2019-04-06T04:41:39.907Z,9.00
2019-04-06T04:44:08.088Z,9.10
2019-04-06T04:46:37.497Z,9.30
2019-04-06T04:49:06.309Z,9.50
2019-04-06T04:51:35.044Z,9.50
2019-04-06T04:54:03.565Z,9.50
2019-04-06T04:56:32.288Z,9.20
2019-04-06T04:59:01.605Z,9.20
2019-04-06T05:01:30.305Z,9.20
2019-04-06T05:03:58.941Z,9.20
2019-04-06T05:06:27.482Z,9.30
2019-04-06T05:08:56.339Z,9.20
2019-04-06T05:11:24.833Z,9.10
2019-04-06T05:14:49.595Z,9.10
2019-04-06T05:17:18.186Z,9.20
2019-04-06T05:19:49.282Z,9.10
2019-04-06T05:22:18.139Z,9.20
2019-04-06T05:24:46.950Z,9.30
2019-04-06T05:27:15.541Z,9.30
2019-04-06T05:29:45.759Z,9.20
2019-04-06T05:32:14.787Z,9.00
2019-04-06T05:34:43.338Z,8.90
2019-04-06T05:37:12.038Z,8.80
2019-04-06T05:39:40.950Z,8.60
2019-04-06T05:42:09.844Z,8.60
2019-04-06T05:44:38.445Z,8.70
2019-04-06T05:47:06.897Z,8.60
2019-04-06T05:49:35.647Z,8.70
2019-04-06T05:52:06.052Z,8.80
2019-04-06T05:54:34.838Z,8.90
2019-04-06T05:57:03.417Z,8.90
2019-04-06T05:59:32.251Z,8.70
2019-04-06T06:02:00.861Z,8.60
2019-04-06T06:04:29.498Z,8.70
2019-04-06T06:06:58.423Z,8.60
2019-04-06T06:09:26.932Z,8.60
2019-04-06T06:11:56.099Z,8.60
2019-04-06T06:14:24.987Z,8.50
2019-04-06T06:16:55.325Z,8.50
2019-04-06T06:19:23.965Z,8.60
2019-04-06T06:21:52.908Z,8.70
2019-04-06T06:24:21.539Z,8.60
2019-04-06T06:26:50.216Z,8.70
2019-04-06T06:29:19.123Z,8.60
2019-04-06T06:31:47.660Z,8.60
2019-04-06T06:34:16.491Z,8.60
2019-04-06T06:36:46.114Z,8.40
2019-04-06T06:39:15.063Z,8.50
2019-04-06T06:41:47.247Z,8.70
2019-04-06T06:44:15.905Z,8.90
2019-04-06T06:46:44.327Z,9.00
2019-04-06T06:49:13.444Z,9.10
2019-04-06T06:51:42.190Z,9.10
2019-04-06T06:54:10.810Z,9.10
2019-04-06T06:56:40.427Z,9.00
2019-04-06T06:59:09.062Z,9.00
2019-04-06T07:01:37.686Z,9.10
2019-04-06T07:04:06.726Z,9.30
2019-04-06T07:06:36.276Z,9.40
2019-04-06T07:09:07.300Z,9.40
2019-04-06T07:11:35.723Z,9.50
2019-04-06T07:14:04.870Z,9.60
2019-04-06T07:16:33.509Z,9.60
2019-04-06T07:19:02.444Z,9.60
2019-04-06T07:21:31.307Z,9.60
2019-04-06T07:24:00.050Z,9.70
2019-04-06T07:26:30.203Z,9.70
2019-04-06T07:28:59.041Z,9.70
2019-04-06T07:31:27.526Z,9.80
2019-04-06T07:33:56.627Z,9.90
2019-04-06T07:36:25.187Z,10.00
2019-04-06T07:38:54.373Z,10.00
2019-04-06T07:41:23.121Z,9.90
2019-04-06T07:43:52.597Z,9.90
2019-04-06T07:46:22.955Z,9.80
2019-04-06T07:48:51.421Z,9.80
2019-04-06T07:51:21.039Z,9.80
2019-04-06T07:53:50.346Z,9.90
2019-04-06T07:56:20.625Z,9.90
2019-04-06T07:58:50.312Z,9.90
2019-04-06T08:01:19.598Z,9.80
2019-04-06T08:03:49.118Z,9.70
2019-04-06T08:06:17.609Z,9.70
2019-04-06T08:08:46.418Z,9.50
2019-04-06T08:11:14.945Z,9.40
2019-04-06T08:13:43.752Z,9.40
2019-04-06T08:16:12.263Z,9.40
2019-04-06T08:18:40.742Z,9.50
2019-04-06T08:21:09.822Z,9.40
2019-04-06T08:23:38.796Z,9.40
2019-04-06T08:26:07.732Z,9.10
2019-04-06T08:28:36.509Z,9.00
2019-04-06T08:31:05.387Z,9.20
2019-04-06T08:33:34.190Z,9.30
2019-04-06T08:36:04.447Z,9.30
2019-04-06T08:38:33.304Z,9.40
2019-04-06T08:41:01.951Z,9.40
2019-04-06T08:43:30.466Z,9.40
2019-04-06T08:45:58.956Z,9.30
2019-04-06T08:48:27.631Z,9.00
2019-04-06T08:50:56.083Z,9.00
2019-04-06T08:53:24.892Z,9.10
2019-04-06T08:55:55.331Z,9.20
2019-04-06T08:58:24.426Z,9.30
2019-04-06T09:00:54.668Z,9.20
2019-04-06T09:03:23.782Z,9.30
2019-04-06T09:05:52.443Z,9.40
2019-04-06T09:08:21.375Z,9.30
2019-04-06T09:10:50.683Z,9.30
2019-04-06T09:13:19.919Z,9.40
2019-04-06T09:15:48.562Z,9.40
2019-04-06T09:18:17.285Z,9.30
2019-04-06T09:20:49.622Z,9.40
2019-04-06T09:23:18.082Z,9.50
2019-04-06T09:25:47.193Z,9.60
2019-04-06T09:28:15.836Z,9.80
2019-04-06T09:30:44.710Z,9.80
2019-04-06T09:33:13.353Z,9.70
2019-04-06T09:35:41.982Z,9.60
2019-04-06T09:38:18.703Z,9.70
2019-04-06T09:40:48.894Z,9.70
2019-04-06T09:43:17.999Z,9.70
2019-04-06T09:46:05.042Z,9.70
2019-04-06T09:48:39.977Z,9.80
2019-04-06T09:51:39.148Z,9.70
2019-04-06T09:54:14.997Z,9.80
2019-04-06T09:56:53.694Z,10.00
2019-04-06T09:59:35.943Z,10.20
2019-04-06T10:02:20.637Z,10.20
2019-04-06T10:05:08.917Z,10.30
2019-04-06T10:07:49.236Z,10.30
2019-04-06T10:10:36.268Z,10.40
2019-04-06T10:13:28.875Z,10.40
2019-04-06T10:16:04.128Z,10.40
2019-04-06T10:18:57.364Z,10.50
2019-04-06T10:21:49.741Z,10.60
2019-04-06T10:24:32.826Z,10.70
2019-04-06T10:27:21.498Z,10.80
2019-04-06T10:30:02.437Z,10.70
2019-04-06T10:33:04.666Z,10.70
2019-04-06T10:35:59.761Z,10.80
2019-04-06T10:38:54.898Z,11.00
2019-04-06T10:41:47.584Z,11.10
2019-04-06T10:44:30.379Z,11.10
2019-04-06T10:47:15.078Z,11.20
2019-04-06T10:50:12.618Z,11.30
2019-04-06T10:52:48.356Z,11.20
2019-04-06T10:55:27.307Z,11.10
2019-04-06T10:58:23.799Z,11.20
2019-04-06T11:01:24.917Z,11.30
2019-04-06T11:04:00.053Z,11.40
2019-04-06T11:06:41.987Z,11.50
2019-04-06T11:09:48.378Z,11.50
2019-04-06T11:12:36.287Z,11.60
2019-04-06T11:15:35.123Z,11.70
2019-04-06T11:18:16.264Z,11.70
2019-04-06T11:21:06.978Z,11.80
2019-04-06T11:23:45.862Z,11.90
2019-04-06T11:26:41.665Z,12.00
2019-04-06T11:29:21.267Z,12.00
2019-04-06T11:32:17.943Z,12.00
2019-04-06T11:35:09.386Z,12.10
2019-04-06T11:38:05.523Z,12.10
2019-04-06T11:41:04.148Z,12.20
2019-04-06T11:43:42.595Z,12.20
2019-04-06T11:46:34.318Z,12.30
2019-04-06T11:49:17.522Z,12.30
2019-04-06T11:52:00.381Z,12.20
2019-04-06T11:55:03.883Z,12.10
2019-04-06T11:58:02.678Z,12.10
2019-04-06T12:01:10.069Z,12.20
2019-04-06T12:03:54.779Z,12.30
2019-04-06T12:06:29.209Z,12.50
2019-04-06T12:09:15.967Z,12.60
2019-04-06T12:12:19.406Z,12.60
2019-04-06T12:15:03.793Z,12.60
2019-04-06T12:17:52.165Z,12.70
2019-04-06T12:20:51.485Z,12.60
2019-04-06T12:23:48.128Z,12.50
2019-04-06T12:26:36.189Z,12.40
2019-04-06T12:29:34.596Z,12.40
2019-04-06T12:32:42.772Z,12.60
2019-04-06T12:35:33.934Z,12.60
2019-04-06T12:38:21.255Z,12.70
2019-04-06T12:41:21.607Z,12.90
2019-04-06T12:44:15.669Z,13.00
2019-04-06T12:47:13.181Z,13.10
2019-04-06T12:50:13.368Z,13.10
2019-04-06T12:53:00.204Z,13.10
2019-04-06T12:55:50.571Z,13.00
2019-04-06T12:58:41.705Z,13.10
2019-04-06T13:01:21.194Z,13.00
2019-04-06T13:04:02.249Z,13.10
2019-04-06T13:06:49.233Z,13.10
2019-04-06T13:09:37.304Z,13.10
2019-04-06T13:12:25.542Z,13.10
2019-04-06T13:15:13.622Z,13.00
2019-04-06T13:17:52.538Z,12.90
2019-04-06T13:20:55.854Z,12.90
2019-04-06T13:23:39.258Z,12.80
2019-04-06T13:26:32.822Z,12.80
2019-04-06T13:29:25.717Z,12.90
2019-04-06T13:32:13.971Z,12.70
2019-04-06T13:34:58.217Z,12.60
2019-04-06T13:37:49.208Z,12.60
2019-04-06T13:40:43.724Z,12.60
2019-04-06T13:43:18.602Z,12.60
2019-04-06T13:46:18.633Z,12.60
2019-04-06T13:49:04.507Z,12.60
2019-04-06T13:51:45.095Z,12.60
2019-04-06T13:54:28.400Z,12.50
2019-04-06T13:57:12.363Z,12.40
2019-04-06T14:00:03.493Z,12.30
2019-04-06T14:02:40.147Z,12.30
2019-04-06T14:05:34.037Z,12.20
2019-04-06T14:08:20.736Z,12.30
2019-04-06T14:11:06.570Z,12.30
2019-04-06T14:13:55.347Z,12.30
2019-04-06T14:16:57.549Z,12.30
2019-04-06T14:19:51.677Z,12.50
2019-04-06T14:22:30.795Z,12.50
2019-04-06T14:25:15.941Z,12.50
2019-04-06T14:27:52.477Z,12.40
2019-04-06T14:30:39.034Z,12.30
2019-04-06T14:33:27.757Z,12.20
2019-04-06T14:36:10.877Z,12.30
2019-04-06T14:38:58.974Z,12.30
2019-04-06T14:41:45.687Z,12.30
2019-04-06T14:44:36.698Z,12.30
2019-04-06T14:47:40.400Z,12.30
2019-04-06T14:50:20.636Z,12.40
2019-04-06T14:53:08.223Z,12.40
2019-04-06T14:55:41.461Z,12.30
2019-04-06T14:58:17.173Z,12.30
2019-04-06T15:00:59.812Z,12.30
2019-04-06T15:03:46.880Z,12.30
2019-04-06T15:06:41.545Z,12.30
2019-04-06T15:09:32.432Z,12.30
2019-04-06T15:12:36.938Z,12.40
2019-04-06T15:15:24.046Z,12.50
2019-04-06T15:18:27.748Z,12.50
2019-04-06T15:21:22.224Z,12.50
2019-04-06T15:24:04.252Z,12.50
2019-04-06T15:26:50.898Z,12.60
2019-04-06T15:29:45.301Z,12.60
2019-04-06T15:32:33.590Z,12.50
2019-04-06T15:35:09.862Z,12.40
2019-04-06T15:37:57.988Z,12.30
2019-04-06T15:40:44.915Z,12.30
2019-04-06T15:43:31.990Z,12.40
2019-04-06T15:46:23.261Z,12.20
2019-04-06T15:49:26.534Z,12.10
2019-04-06T15:52:22.603Z,12.00
2019-04-06T15:55:11.046Z,12.10
2019-04-06T15:57:48.003Z,12.30
2019-04-06T16:00:35.792Z,12.40
2019-04-06T16:03:15.071Z,12.40
2019-04-06T16:06:03.796Z,12.30
2019-04-06T16:08:48.320Z,12.40
2019-04-06T16:11:39.529Z,12.30
2019-04-06T16:14:40.115Z,12.30
2019-04-06T16:17:15.978Z,12.30
2019-04-06T16:20:00.187Z,12.20
2019-04-06T16:22:39.331Z,12.20
2019-04-06T16:25:38.135Z,12.20
2019-04-06T16:28:15.653Z,12.30
2019-04-06T16:31:10.329Z,12.30
2019-04-06T16:34:14.002Z,12.40
2019-04-06T16:37:02.010Z,12.40
2019-04-06T16:39:52.975Z,12.30
2019-04-06T16:42:36.406Z,12.40
2019-04-06T16:45:23.174Z,12.40
2019-04-06T16:48:10.749Z,12.40
2019-04-06T16:51:00.134Z,12.40
2019-04-06T16:53:54.510Z,12.40
2019-04-06T16:56:34.298Z,12.30
2019-04-06T16:59:23.867Z,12.20
2019-04-06T17:02:22.184Z,12.10
2019-04-06T17:04:54.177Z,12.10
2019-04-06T17:07:41.083Z,12.20
2019-04-06T17:10:22.888Z,12.20
2019-04-06T17:13:25.981Z,12.20
2019-04-06T17:16:12.718Z,12.20
2019-04-06T17:19:00.748Z,12.20
2019-04-06T17:21:47.676Z,12.20
2019-04-06T17:24:24.424Z,12.20
2019-04-06T17:27:02.315Z,12.30
2019-04-06T17:29:56.317Z,12.20
2019-04-06T17:32:43.717Z,12.20
2019-04-06T17:35:19.539Z,12.00
2019-04-06T17:37:54.412Z,12.00
2019-04-06T17:40:54.704Z,12.10
2019-04-06T17:43:48.835Z,12.10
2019-04-06T17:46:39.660Z,12.20
2019-04-06T17:49:26.348Z,12.20
2019-04-06T17:52:25.220Z,12.20
2019-04-06T17:55:22.195Z,12.10
2019-04-06T17:58:25.693Z,12.10
2019-04-06T18:01:10.845Z,12.20
2019-04-06T18:04:01.639Z,12.20
2019-04-06T18:06:53.346Z,12.10
2019-04-06T18:09:32.003Z,12.10
2019-04-06T18:12:12.324Z,12.00
2019-04-06T18:14:41.316Z,12.00
2019-04-06T18:17:10.122Z,12.10
2019-04-06T18:19:38.684Z,12.10
2019-04-06T18:22:08.964Z,12.10
2019-04-06T18:24:37.423Z,12.20
2019-04-06T18:27:05.984Z,12.10
2019-04-06T18:29:35.204Z,12.10
2019-04-06T18:32:19.890Z,12.10
2019-04-06T18:34:48.394Z,12.10
2019-04-06T18:37:36.834Z,12.00
2019-04-06T18:40:13.586Z,12.10
2019-04-06T18:42:42.241Z,12.10
2019-04-06T18:45:10.930Z,12.10
2019-04-06T18:47:39.309Z,12.00
2019-04-06T18:50:08.222Z,12.00
2019-04-06T18:52:37.302Z,12.00
2019-04-06T18:55:06.476Z,12.00
2019-04-06T18:57:36.907Z,12.00
2019-04-06T19:00:08.595Z,12.00
2019-04-06T19:02:38.189Z,11.90
2019-04-06T19:05:07.800Z,11.90
2019-04-06T19:07:36.464Z,11.90
2019-04-06T19:10:07.039Z,11.90
2019-04-06T19:12:35.743Z,11.90
2019-04-06T19:15:05.981Z,11.90
2019-04-06T19:17:34.736Z,11.90
2019-04-06T19:20:04.399Z,11.90
2019-04-06T19:22:34.691Z,11.90
2019-04-06T19:25:03.767Z,11.90
2019-04-06T19:27:34.057Z,11.90
2019-04-06T19:30:08.189Z,11.90
2019-04-06T19:32:40.269Z,11.80
2019-04-06T19:35:11.432Z,11.80
2019-04-06T19:37:43.132Z,11.80
2019-04-06T19:40:12.465Z,11.80
2019-04-06T19:42:41.070Z,11.80
2019-04-06T19:45:10.417Z,11.80
2019-04-06T19:47:39.339Z,11.80
2019-04-06T19:50:09.419Z,11.80
2019-04-06T19:52:38.074Z,11.80
2019-04-06T19:55:08.941Z,11.80
2019-04-06T19:57:37.516Z,11.80
2019-04-06T20:00:08.026Z,11.70
2019-04-06T20:02:37.297Z,11.70
2019-04-06T20:05:06.494Z,11.60
2019-04-06T20:07:35.562Z,11.60
2019-04-06T20:10:05.320Z,11.60
2019-04-06T20:12:34.438Z,11.60
2019-04-06T20:15:06.347Z,11.60
2019-04-06T20:17:35.504Z,11.60
2019-04-06T20:20:05.419Z,11.60
2019-04-06T20:22:34.133Z,11.40
2019-04-06T20:25:03.244Z,11.40
2019-04-06T20:27:31.740Z,11.40
2019-04-06T20:30:00.249Z,11.30
2019-04-06T20:32:29.001Z,11.30
2019-04-06T20:34:57.462Z,11.20
2019-04-06T20:37:26.333Z,11.10
2019-04-06T20:39:55.039Z,11.10
2019-04-06T20:42:23.670Z,11.00
2019-04-06T20:44:52.678Z,11.00
2019-04-06T20:47:23.154Z,10.90
2019-04-06T20:49:54.830Z,10.80
2019-04-06T20:52:25.136Z,10.80
2019-04-06T20:54:54.053Z,10.80
2019-04-06T20:57:23.060Z,10.80
2019-04-06T20:59:54.043Z,10.80
2019-04-06T21:02:22.677Z,10.90
2019-04-06T21:04:51.281Z,11.00
2019-04-06T21:07:20.362Z,11.00
2019-04-06T21:09:49.401Z,11.00
2019-04-06T21:12:18.213Z,11.00
2019-04-06T21:14:47.004Z,11.00
2019-04-06T21:17:16.144Z,11.00
2019-04-06T21:19:44.843Z,11.00
2019-04-06T21:22:13.480Z,11.00
2019-04-06T21:24:42.061Z,10.90
2019-04-06T21:27:10.712Z,10.90
2019-04-06T21:29:42.241Z,10.90
2019-04-06T21:32:12.801Z,11.00
2019-04-06T21:34:41.508Z,11.00
2019-04-06T21:37:10.230Z,11.00
2019-04-06T21:39:38.999Z,10.70
2019-04-06T21:42:08.578Z,10.60
2019-04-06T21:44:37.478Z,10.70
2019-04-06T21:47:07.386Z,10.70
2019-04-06T21:49:37.196Z,10.80
2019-04-06T21:52:06.553Z,10.90
2019-04-06T21:54:35.007Z,10.80
2019-04-06T21:57:03.865Z,10.70
2019-04-06T21:59:32.375Z,10.80
2019-04-06T22:02:01.246Z,10.80
2019-04-06T22:04:30.376Z,10.80
2019-04-06T22:06:58.973Z,10.70
2019-04-06T22:09:27.523Z,10.70
2019-04-06T22:11:56.106Z,10.60
2019-04-06T22:14:24.919Z,10.70
2019-04-06T22:16:53.518Z,10.70
2019-04-06T22:19:22.524Z,10.80
2019-04-06T22:21:51.157Z,10.80
2019-04-06T22:24:20.216Z,10.90
2019-04-06T22:26:48.853Z,10.90
2019-04-06T22:29:17.396Z,10.80
2019-04-06T22:31:46.412Z,10.80
2019-04-06T22:34:14.903Z,10.80
2019-04-06T22:36:43.611Z,10.80
2019-04-06T22:39:12.292Z,10.80
2019-04-06T22:41:40.846Z,10.80
2019-04-06T22:44:09.423Z,10.80
2019-04-06T22:46:38.147Z,10.80
2019-04-06T22:49:06.636Z,10.80
2019-04-06T22:51:36.843Z,10.70
2019-04-06T22:54:05.380Z,10.70
2019-04-06T22:56:33.756Z,10.60
2019-04-06T22:59:02.914Z,10.50
2019-04-06T23:01:32.656Z,10.40
2019-04-06T23:04:19.548Z,10.50
2019-04-06T23:07:08.878Z,10.50
2019-04-06T23:09:37.385Z,10.50
2019-04-06T23:12:06.442Z,10.50
2019-04-06T23:14:35.192Z,10.50
2019-04-06T23:17:03.785Z,10.60
2019-04-06T23:19:33.677Z,10.50
2019-04-06T23:22:02.266Z,10.50
2019-04-06T23:24:30.900Z,10.50
2019-04-06T23:26:59.300Z,10.50
2019-04-06T23:29:28.028Z,10.40
2019-04-06T23:31:56.631Z,10.40
2019-04-06T23:34:25.023Z,10.40
2019-04-06T23:36:53.510Z,10.30
2019-04-06T23:39:22.047Z,10.40
2019-04-06T23:41:50.682Z,10.50
2019-04-06T23:44:20.410Z,10.50
2019-04-06T23:46:48.892Z,10.50
2019-04-06T23:49:19.120Z,10.50
2019-04-06T23:51:47.767Z,10.50
2019-04-06T23:54:16.439Z,10.40
2019-04-06T23:56:46.623Z,10.40
2019-04-06T23:59:15.130Z,10.30
